sensor_id;sensor_type;location;lat;lon;timestamp;temperature;humidity
30250;DHT22;17064;47.974;13.826;2023-02-12T00:00:25;3.80;96.00
30250;DHT22;17064;47.974;13.826;2023-02-12T00:05:25;3.90;97.60
30250;DHT22;17064;47.974;13.826;2023-02-12T00:10:26;3.80;99.00
30250;DHT22;17064;47.974;13.826;2023-02-12T00:15:27;3.90;99.90
30250;DHT22;17064;47.974;13.826;2023-02-12T00:20:27;3.90;99.90
30250;DHT22;17064;47.974;13.826;2023-02-12T00:25:28;3.80;99.90
30250;DHT22;17064;47.974;13.826;2023-02-12T00:30:29;3.80;99.90
30250;DHT22;17064;47.974;13.826;2023-02-12T00:35:29;3.80;99.90
30250;DHT22;17064;47.974;13.826;2023-02-12T00:40:30;3.80;99.90
30250;DHT22;17064;47.974;13.826;2023-02-12T00:45:31;3.80;99.90
30250;DHT22;17064;47.974;13.826;2023-02-12T00:50:32;3.80;99.90
30250;DHT22;17064;47.974;13.826;2023-02-12T00:55:33;3.70;99.90
30250;DHT22;17064;47.974;13.826;2023-02-12T01:00:34;3.70;99.90
30250;DHT22;17064;47.974;13.826;2023-02-12T01:05:35;3.60;99.90
30250;DHT22;17064;47.974;13.826;2023-02-12T01:10:36;3.50;99.90
30250;DHT22;17064;47.974;13.826;2023-02-12T01:15:37;3.50;99.90
30250;DHT22;17064;47.974;13.826;2023-02-12T01:20:39;3.40;99.90
30250;DHT22;17064;47.974;13.826;2023-02-12T01:25:39;3.40;99.90
30250;DHT22;17064;47.974;13.826;2023-02-12T01:30:40;3.40;99.90
30250;DHT22;17064;47.974;13.826;2023-02-12T01:35:41;3.40;99.90
30250;DHT22;17064;47.974;13.826;2023-02-12T01:40:41;3.40;99.90
30250;DHT22;17064;47.974;13.826;2023-02-12T01:45:48;3.30;99.90
30250;DHT22;17064;47.974;13.826;2023-02-12T01:50:50;3.30;99.90
30250;DHT22;17064;47.974;13.826;2023-02-12T01:55:55;3.30;99.90
30250;DHT22;17064;47.974;13.826;2023-02-12T02:01:00;3.30;99.90
30250;DHT22;17064;47.974;13.826;2023-02-12T02:06:07;3.20;99.90
30250;DHT22;17064;47.974;13.826;2023-02-12T02:11:09;3.20;99.90
30250;DHT22;17064;47.974;13.826;2023-02-12T02:16:29;3.10;99.90
30250;DHT22;17064;47.974;13.826;2023-02-12T02:22:01;3.10;99.90
30250;DHT22;17064;47.974;13.826;2023-02-12T02:27:16;3.00;99.90
30250;DHT22;17064;47.974;13.826;2023-02-12T02:32:27;3.00;99.90
30250;DHT22;17064;47.974;13.826;2023-02-12T02:37:34;2.90;99.90
30250;DHT22;17064;47.974;13.826;2023-02-12T02:42:43;2.90;99.90
30250;DHT22;17064;47.974;13.826;2023-02-12T02:48:03;2.90;99.90
30250;DHT22;17064;47.974;13.826;2023-02-12T02:53:11;2.80;99.90
30250;DHT22;17064;47.974;13.826;2023-02-12T02:58:16;2.80;99.90
30250;DHT22;17064;47.974;13.826;2023-02-12T03:03:27;2.80;99.90
30250;DHT22;17064;47.974;13.826;2023-02-12T03:08:35;2.80;99.90
30250;DHT22;17064;47.974;13.826;2023-02-12T03:13:48;2.80;99.90
30250;DHT22;17064;47.974;13.826;2023-02-12T03:19:03;2.70;99.90
30250;DHT22;17064;47.974;13.826;2023-02-12T03:24:34;2.70;99.90
30250;DHT22;17064;47.974;13.826;2023-02-12T03:29:36;2.70;99.90
30250;DHT22;17064;47.974;13.826;2023-02-12T03:50:14;2.70;99.90
30250;DHT22;17064;47.974;13.826;2023-02-12T03:55:16;2.70;99.90
30250;DHT22;17064;47.974;13.826;2023-02-12T04:00:21;2.70;99.90
30250;DHT22;17064;47.974;13.826;2023-02-12T04:05:24;2.70;99.90
30250;DHT22;17064;47.974;13.826;2023-02-12T04:15:56;2.70;99.90
30250;DHT22;17064;47.974;13.826;2023-02-12T04:26:54;2.80;99.90
30250;DHT22;17064;47.974;13.826;2023-02-12T04:37:22;2.80;99.90
30250;DHT22;17064;47.974;13.826;2023-02-12T04:42:23;2.70;99.90
30250;DHT22;17064;47.974;13.826;2023-02-12T04:47:25;2.80;99.90
30250;DHT22;17064;47.974;13.826;2023-02-12T04:52:25;2.70;99.90
30250;DHT22;17064;47.974;13.826;2023-02-12T04:57:26;2.80;99.90
30250;DHT22;17064;47.974;13.826;2023-02-12T05:02:27;2.80;99.90
30250;DHT22;17064;47.974;13.826;2023-02-12T05:07:28;2.80;99.90
30250;DHT22;17064;47.974;13.826;2023-02-12T05:12:28;2.80;99.90
30250;DHT22;17064;47.974;13.826;2023-02-12T05:17:29;2.80;99.90
30250;DHT22;17064;47.974;13.826;2023-02-12T05:22:30;2.80;99.90
30250;DHT22;17064;47.974;13.826;2023-02-12T05:27:30;2.80;99.90
30250;DHT22;17064;47.974;13.826;2023-02-12T05:32:31;2.80;99.90
30250;DHT22;17064;47.974;13.826;2023-02-12T05:37:34;2.90;99.90
30250;DHT22;17064;47.974;13.826;2023-02-12T05:42:35;2.80;99.90
30250;DHT22;17064;47.974;13.826;2023-02-12T05:47:36;2.80;99.90
30250;DHT22;17064;47.974;13.826;2023-02-12T05:52:37;2.80;99.90
30250;DHT22;17064;47.974;13.826;2023-02-12T05:57:37;2.80;99.90
30250;DHT22;17064;47.974;13.826;2023-02-12T06:02:38;2.80;99.90
30250;DHT22;17064;47.974;13.826;2023-02-12T06:07:39;2.80;99.90
30250;DHT22;17064;47.974;13.826;2023-02-12T06:12:39;2.70;99.90
30250;DHT22;17064;47.974;13.826;2023-02-12T06:17:40;2.70;99.90
30250;DHT22;17064;47.974;13.826;2023-02-12T06:22:41;2.70;99.90
30250;DHT22;17064;47.974;13.826;2023-02-12T06:27:41;2.70;99.90
30250;DHT22;17064;47.974;13.826;2023-02-12T06:32:42;2.70;99.90
30250;DHT22;17064;47.974;13.826;2023-02-12T06:37:43;2.60;99.90
30250;DHT22;17064;47.974;13.826;2023-02-12T06:42:43;2.70;99.90
30250;DHT22;17064;47.974;13.826;2023-02-12T06:47:44;2.60;99.90
30250;DHT22;17064;47.974;13.826;2023-02-12T06:52:45;2.70;99.90
30250;DHT22;17064;47.974;13.826;2023-02-12T06:57:46;2.70;99.90
30250;DHT22;17064;47.974;13.826;2023-02-12T07:02:54;2.70;99.90
30250;DHT22;17064;47.974;13.826;2023-02-12T07:07:55;2.70;99.90
30250;DHT22;17064;47.974;13.826;2023-02-12T07:12:56;2.70;99.90
30250;DHT22;17064;47.974;13.826;2023-02-12T07:17:56;2.80;99.90
30250;DHT22;17064;47.974;13.826;2023-02-12T07:22:57;2.80;99.90
30250;DHT22;17064;47.974;13.826;2023-02-12T07:27:58;2.80;99.90
30250;DHT22;17064;47.974;13.826;2023-02-12T07:32:58;2.90;99.90
30250;DHT22;17064;47.974;13.826;2023-02-12T07:37:59;2.90;99.90
30250;DHT22;17064;47.974;13.826;2023-02-12T07:43:00;2.90;99.90
30250;DHT22;17064;47.974;13.826;2023-02-12T07:48:00;3.00;99.90
30250;DHT22;17064;47.974;13.826;2023-02-12T07:53:01;3.00;99.90
30250;DHT22;17064;47.974;13.826;2023-02-12T07:58:02;3.10;99.90
30250;DHT22;17064;47.974;13.826;2023-02-12T08:03:02;3.20;99.90
30250;DHT22;17064;47.974;13.826;2023-02-12T08:08:03;3.20;99.90
30250;DHT22;17064;47.974;13.826;2023-02-12T08:13:04;3.30;99.90
30250;DHT22;17064;47.974;13.826;2023-02-12T08:18:07;3.40;99.90
30250;DHT22;17064;47.974;13.826;2023-02-12T08:23:08;3.30;99.90
30250;DHT22;17064;47.974;13.826;2023-02-12T08:28:09;3.30;99.90
30250;DHT22;17064;47.974;13.826;2023-02-12T08:33:09;3.30;99.90
30250;DHT22;17064;47.974;13.826;2023-02-12T08:38:10;3.30;99.90
30250;DHT22;17064;47.974;13.826;2023-02-12T08:43:11;3.40;99.90
30250;DHT22;17064;47.974;13.826;2023-02-12T08:48:11;3.40;99.90
30250;DHT22;17064;47.974;13.826;2023-02-12T08:53:12;3.40;99.90
30250;DHT22;17064;47.974;13.826;2023-02-12T08:58:13;3.50;99.90
30250;DHT22;17064;47.974;13.826;2023-02-12T09:03:13;3.50;99.90
30250;DHT22;17064;47.974;13.826;2023-02-12T09:08:14;3.50;99.90
30250;DHT22;17064;47.974;13.826;2023-02-12T09:13:15;3.60;99.90
30250;DHT22;17064;47.974;13.826;2023-02-12T09:18:16;3.60;99.90
30250;DHT22;17064;47.974;13.826;2023-02-12T09:23:16;3.70;99.90
30250;DHT22;17064;47.974;13.826;2023-02-12T09:28:17;3.80;99.90
30250;DHT22;17064;47.974;13.826;2023-02-12T09:33:18;3.90;99.90
30250;DHT22;17064;47.974;13.826;2023-02-12T09:38:18;3.90;99.90
30250;DHT22;17064;47.974;13.826;2023-02-12T09:43:35;3.90;99.90
30250;DHT22;17064;47.974;13.826;2023-02-12T09:54:11;4.00;99.90
30250;DHT22;17064;47.974;13.826;2023-02-12T10:04:57;4.00;99.90
30250;DHT22;17064;47.974;13.826;2023-02-12T10:26:57;4.30;99.90
30250;DHT22;17064;47.974;13.826;2023-02-12T10:32:44;4.30;99.90
30250;DHT22;17064;47.974;13.826;2023-02-12T10:42:38;4.50;99.90
30250;DHT22;17064;47.974;13.826;2023-02-12T10:47:40;4.60;99.90
30250;DHT22;17064;47.974;13.826;2023-02-12T10:52:52;4.70;99.90
30250;DHT22;17064;47.974;13.826;2023-02-12T10:57:55;4.90;99.90
30250;DHT22;17064;47.974;13.826;2023-02-12T11:03:20;5.10;99.90
30250;DHT22;17064;47.974;13.826;2023-02-12T11:08:40;5.20;99.90
30250;DHT22;17064;47.974;13.826;2023-02-12T11:13:46;5.30;99.90
30250;DHT22;17064;47.974;13.826;2023-02-12T11:18:58;5.40;99.90
30250;DHT22;17064;47.974;13.826;2023-02-12T11:29:26;5.60;99.90
30250;DHT22;17064;47.974;13.826;2023-02-12T11:34:28;5.70;99.90
30250;DHT22;17064;47.974;13.826;2023-02-12T11:39:32;5.70;99.90
30250;DHT22;17064;47.974;13.826;2023-02-12T11:44:39;5.80;99.90
30250;DHT22;17064;47.974;13.826;2023-02-12T11:55:02;5.90;99.90
30250;DHT22;17064;47.974;13.826;2023-02-12T12:05:16;5.90;99.90
30250;DHT22;17064;47.974;13.826;2023-02-12T12:10:41;5.90;99.90
30250;DHT22;17064;47.974;13.826;2023-02-12T12:15:46;6.00;99.90
30250;DHT22;17064;47.974;13.826;2023-02-12T12:21:24;6.10;99.90
30250;DHT22;17064;47.974;13.826;2023-02-12T12:26:30;6.20;99.90
30250;DHT22;17064;47.974;13.826;2023-02-12T12:31:37;6.30;99.90
30250;DHT22;17064;47.974;13.826;2023-02-12T12:37:01;6.40;99.90
30250;DHT22;17064;47.974;13.826;2023-02-12T12:42:43;6.50;99.90
30250;DHT22;17064;47.974;13.826;2023-02-12T12:47:56;6.60;99.90
30250;DHT22;17064;47.974;13.826;2023-02-12T12:58:29;7.00;99.90
30250;DHT22;17064;47.974;13.826;2023-02-12T13:25:34;8.80;99.90
30250;DHT22;17064;47.974;13.826;2023-02-12T13:30:42;8.30;99.90
30250;DHT22;17064;47.974;13.826;2023-02-12T13:35:47;8.00;99.90
30250;DHT22;17064;47.974;13.826;2023-02-12T13:40:57;7.70;99.90
30250;DHT22;17064;47.974;13.826;2023-02-12T13:51:20;7.70;99.90
30250;DHT22;17064;47.974;13.826;2023-02-12T14:01:44;7.70;99.90
30250;DHT22;17064;47.974;13.826;2023-02-12T14:06:58;7.70;99.90
30250;DHT22;17064;47.974;13.826;2023-02-12T14:11:59;7.90;99.90
30250;DHT22;17064;47.974;13.826;2023-02-12T14:27:58;8.30;99.90
30250;DHT22;17064;47.974;13.826;2023-02-12T14:43:40;8.00;99.90
30250;DHT22;17064;47.974;13.826;2023-02-12T14:49:03;7.90;99.90
30250;DHT22;17064;47.974;13.826;2023-02-12T14:54:14;7.80;99.90
30250;DHT22;17064;47.974;13.826;2023-02-12T14:59:19;7.60;99.90
30250;DHT22;17064;47.974;13.826;2023-02-12T15:04:27;7.50;99.90
30250;DHT22;17064;47.974;13.826;2023-02-12T15:09:34;7.30;99.90
30250;DHT22;17064;47.974;13.826;2023-02-12T15:14:39;7.20;99.90
30250;DHT22;17064;47.974;13.826;2023-02-12T15:19:50;6.90;99.90
30250;DHT22;17064;47.974;13.826;2023-02-12T15:25:19;6.70;99.90
30250;DHT22;17064;47.974;13.826;2023-02-12T15:30:28;6.40;99.90
30250;DHT22;17064;47.974;13.826;2023-02-12T15:35:36;6.20;99.90
30250;DHT22;17064;47.974;13.826;2023-02-12T15:40:56;6.00;99.90
30250;DHT22;17064;47.974;13.826;2023-02-12T15:45:57;5.80;99.90
30250;DHT22;17064;47.974;13.826;2023-02-12T15:56:22;5.20;99.90
30250;DHT22;17064;47.974;13.826;2023-02-12T16:01:32;5.00;99.90
30250;DHT22;17064;47.974;13.826;2023-02-12T16:06:35;4.80;99.90
30250;DHT22;17064;47.974;13.826;2023-02-12T16:11:37;4.50;99.90
30250;DHT22;17064;47.974;13.826;2023-02-12T16:16:47;4.30;99.90
30250;DHT22;17064;47.974;13.826;2023-02-12T16:22:05;4.20;99.90
30250;DHT22;17064;47.974;13.826;2023-02-12T16:32:38;3.80;99.90
30250;DHT22;17064;47.974;13.826;2023-02-12T16:37:47;3.60;99.90
30250;DHT22;17064;47.974;13.826;2023-02-12T16:47:50;3.30;99.90
30250;DHT22;17064;47.974;13.826;2023-02-12T16:53:03;3.10;99.90
30250;DHT22;17064;47.974;13.826;2023-02-12T16:58:04;2.90;99.90
30250;DHT22;17064;47.974;13.826;2023-02-12T17:03:05;2.70;99.90
30250;DHT22;17064;47.974;13.826;2023-02-12T17:08:13;2.60;99.90
30250;DHT22;17064;47.974;13.826;2023-02-12T17:13:15;2.30;99.90
30250;DHT22;17064;47.974;13.826;2023-02-12T17:18:17;2.10;99.90
30250;DHT22;17064;47.974;13.826;2023-02-12T17:23:18;2.00;99.90
30250;DHT22;17064;47.974;13.826;2023-02-12T17:28:20;1.80;99.90
30250;DHT22;17064;47.974;13.826;2023-02-12T17:33:22;1.60;99.90
30250;DHT22;17064;47.974;13.826;2023-02-12T17:38:24;1.50;99.90
30250;DHT22;17064;47.974;13.826;2023-02-12T17:43:25;1.40;99.90
30250;DHT22;17064;47.974;13.826;2023-02-12T17:48:26;1.50;99.90
30250;DHT22;17064;47.974;13.826;2023-02-12T17:53:28;1.50;99.90
30250;DHT22;17064;47.974;13.826;2023-02-12T17:58:29;1.40;99.90
30250;DHT22;17064;47.974;13.826;2023-02-12T18:03:30;1.30;99.90
30250;DHT22;17064;47.974;13.826;2023-02-12T18:08:33;1.10;99.90
30250;DHT22;17064;47.974;13.826;2023-02-12T18:13:35;1.00;99.90
30250;DHT22;17064;47.974;13.826;2023-02-12T18:18:39;0.90;99.90
30250;DHT22;17064;47.974;13.826;2023-02-12T18:23:41;0.70;99.90
30250;DHT22;17064;47.974;13.826;2023-02-12T18:28:43;0.70;99.90
30250;DHT22;17064;47.974;13.826;2023-02-12T18:33:44;0.60;99.90
30250;DHT22;17064;47.974;13.826;2023-02-12T18:38:47;0.60;99.90
30250;DHT22;17064;47.974;13.826;2023-02-12T18:43:49;0.60;99.90
30250;DHT22;17064;47.974;13.826;2023-02-12T18:48:52;0.60;99.90
30250;DHT22;17064;47.974;13.826;2023-02-12T18:53:56;0.70;99.90
30250;DHT22;17064;47.974;13.826;2023-02-12T18:59:04;0.80;99.90
30250;DHT22;17064;47.974;13.826;2023-02-12T19:04:08;0.80;99.90
30250;DHT22;17064;47.974;13.826;2023-02-12T19:09:11;0.80;99.90
30250;DHT22;17064;47.974;13.826;2023-02-12T19:14:17;0.70;99.90
30250;DHT22;17064;47.974;13.826;2023-02-12T19:19:19;0.70;99.90
30250;DHT22;17064;47.974;13.826;2023-02-12T19:24:20;0.70;99.90
30250;DHT22;17064;47.974;13.826;2023-02-12T19:29:21;0.70;99.90
30250;DHT22;17064;47.974;13.826;2023-02-12T19:34:23;0.80;99.90
30250;DHT22;17064;47.974;13.826;2023-02-12T19:39:25;0.70;99.90
30250;DHT22;17064;47.974;13.826;2023-02-12T19:44:27;0.80;99.90
30250;DHT22;17064;47.974;13.826;2023-02-12T19:49:28;0.80;99.90
30250;DHT22;17064;47.974;13.826;2023-02-12T19:54:29;0.70;99.90
30250;DHT22;17064;47.974;13.826;2023-02-12T19:59:31;0.80;99.90
30250;DHT22;17064;47.974;13.826;2023-02-12T20:04:33;0.80;99.90
30250;DHT22;17064;47.974;13.826;2023-02-12T20:09:35;0.80;99.90
30250;DHT22;17064;47.974;13.826;2023-02-12T20:14:36;0.80;99.90
30250;DHT22;17064;47.974;13.826;2023-02-12T20:19:37;0.80;99.90
30250;DHT22;17064;47.974;13.826;2023-02-12T20:24:39;0.70;99.90
30250;DHT22;17064;47.974;13.826;2023-02-12T20:29:40;0.70;99.90
30250;DHT22;17064;47.974;13.826;2023-02-12T20:34:41;0.70;99.90
30250;DHT22;17064;47.974;13.826;2023-02-12T20:39:43;0.60;99.90
30250;DHT22;17064;47.974;13.826;2023-02-12T20:44:45;0.60;99.90
30250;DHT22;17064;47.974;13.826;2023-02-12T20:49:46;0.60;99.90
30250;DHT22;17064;47.974;13.826;2023-02-12T20:54:49;0.60;99.90
30250;DHT22;17064;47.974;13.826;2023-02-12T20:59:52;0.50;99.90
30250;DHT22;17064;47.974;13.826;2023-02-12T21:04:53;0.50;99.90
30250;DHT22;17064;47.974;13.826;2023-02-12T21:09:55;0.50;99.90
30250;DHT22;17064;47.974;13.826;2023-02-12T21:14:57;0.40;99.90
30250;DHT22;17064;47.974;13.826;2023-02-12T21:19:58;0.40;99.90
30250;DHT22;17064;47.974;13.826;2023-02-12T21:25:00;0.30;99.90
30250;DHT22;17064;47.974;13.826;2023-02-12T21:30:01;0.30;99.90
30250;DHT22;17064;47.974;13.826;2023-02-12T21:35:03;0.10;99.90
30250;DHT22;17064;47.974;13.826;2023-02-12T21:40:04;0.00;99.90
30250;DHT22;17064;47.974;13.826;2023-02-12T21:45:05;0.00;99.90
30250;DHT22;17064;47.974;13.826;2023-02-12T21:50:06;-0.10;99.90
30250;DHT22;17064;47.974;13.826;2023-02-12T21:55:08;0.00;99.90
30250;DHT22;17064;47.974;13.826;2023-02-12T22:00:09;-0.10;99.90
30250;DHT22;17064;47.974;13.826;2023-02-12T22:05:10;0.00;99.90
30250;DHT22;17064;47.974;13.826;2023-02-12T22:10:11;0.00;99.90
30250;DHT22;17064;47.974;13.826;2023-02-12T22:15:11;0.00;99.90
30250;DHT22;17064;47.974;13.826;2023-02-12T22:20:12;0.10;99.90
30250;DHT22;17064;47.974;13.826;2023-02-12T22:25:13;0.10;99.90
30250;DHT22;17064;47.974;13.826;2023-02-12T22:30:14;0.10;99.90
30250;DHT22;17064;47.974;13.826;2023-02-12T22:35:16;0.10;99.90
30250;DHT22;17064;47.974;13.826;2023-02-12T22:40:16;0.10;99.90
30250;DHT22;17064;47.974;13.826;2023-02-12T22:45:17;0.10;99.90
30250;DHT22;17064;47.974;13.826;2023-02-12T22:50:18;0.10;99.90
30250;DHT22;17064;47.974;13.826;2023-02-12T22:55:19;0.10;99.90
30250;DHT22;17064;47.974;13.826;2023-02-12T23:00:20;0.10;99.90
30250;DHT22;17064;47.974;13.826;2023-02-12T23:05:20;0.10;99.90
30250;DHT22;17064;47.974;13.826;2023-02-12T23:10:21;0.10;99.90
30250;DHT22;17064;47.974;13.826;2023-02-12T23:15:22;0.10;99.90
30250;DHT22;17064;47.974;13.826;2023-02-12T23:20:23;0.10;99.90
30250;DHT22;17064;47.974;13.826;2023-02-12T23:25:26;0.10;99.90
30250;DHT22;17064;47.974;13.826;2023-02-12T23:30:26;0.00;99.90
30250;DHT22;17064;47.974;13.826;2023-02-12T23:35:27;0.00;99.90
30250;DHT22;17064;47.974;13.826;2023-02-12T23:40:28;0.00;99.90
30250;DHT22;17064;47.974;13.826;2023-02-12T23:45:29;0.10;99.90
30250;DHT22;17064;47.974;13.826;2023-02-12T23:50:30;0.10;99.90
30250;DHT22;17064;47.974;13.826;2023-02-12T23:55:31;0.10;99.90
